Time;durP1;ratioP1;P1;durP2;ratioP2;P2;SDS_P1;SDS_P2;PMS_P1;PMS_P2;Temp;Humidity;BMP_temperature;BMP_pressure;BME280_temperature;BME280_humidity;BME280_pressure;Samples;Min_cycle;Max_cycle;Signal;HPM_P1;HPM_P2
2021/09/06 00:00:35;;;;;;;3.35;2.40;;;;;;;9.36;70.53;100787.92;1677402;85;21227;-71
2021/09/06 00:03:02;;;;;;;3.22;2.60;;;;;;;9.38;70.78;100784.52;1668142;85;20997;-70
2021/09/06 00:05:28;;;;;;;4.60;3.25;;;;;;;9.42;71.03;100792.95;1672902;85;21110;-68
2021/09/06 00:07:56;;;;;;;3.17;2.83;;;;;;;9.42;71.03;100789.75;1673156;85;20916;-71
2021/09/06 00:10:42;;;;;;;3.92;3.15;;;;;;;9.45;70.88;100791.17;1656541;85;21587;-72
2021/09/06 00:13:14;;;;;;;5.35;3.80;;;;;;;9.46;70.83;100792.31;1661858;85;21024;-73
2021/09/06 00:15:40;;;;;;;3.77;3.10;;;;;;;9.47;70.77;100788.59;1652101;85;21096;-69
2021/09/06 00:18:07;;;;;;;5.25;3.62;;;;;;;9.49;70.72;100791.07;1672780;85;21353;-68
2021/09/06 00:20:36;;;;;;;6.03;3.20;;;;;;;9.53;70.67;100796.31;1651062;85;20995;-70
2021/09/06 00:23:05;;;;;;;5.10;3.60;;;;;;;9.60;70.63;100792.53;1674973;85;21023;-73
2021/09/06 00:25:33;;;;;;;2.90;2.60;;;;;;;9.69;70.45;100786.37;1671016;84;21187;-72
2021/09/06 00:28:02;;;;;;;3.52;2.92;;;;;;;9.78;70.17;100786.95;1676290;85;21531;-72
2021/09/06 00:30:28;;;;;;;3.70;2.52;;;;;;;9.87;69.76;100788.33;1648537;86;20990;-71
2021/09/06 00:32:56;;;;;;;3.15;2.83;;;;;;;9.92;69.34;100788.50;1677293;84;21019;-73
2021/09/06 00:35:22;;;;;;;2.55;2.30;;;;;;;9.96;68.94;100791.05;1663941;85;21051;-71
2021/09/06 00:37:50;;;;;;;2.67;2.35;;;;;;;10.00;68.60;100787.70;1657434;85;21489;-72
2021/09/06 00:40:19;;;;;;;2.83;2.33;;;;;;;10.04;68.40;100786.73;1661814;85;21016;-71
2021/09/06 00:42:47;;;;;;;2.77;2.30;;;;;;;10.05;68.19;100789.22;1649842;86;20957;-73
2021/09/06 00:45:14;;;;;;;3.20;2.65;;;;;;;10.07;67.93;100795.73;1640129;86;21012;-73
2021/09/06 00:47:42;;;;;;;3.80;2.22;;;;;;;10.07;67.75;100791.14;1650432;85;21574;-73
2021/09/06 00:50:13;;;;;;;4.62;2.70;;;;;;;10.08;67.63;100794.66;1655569;85;21103;-73
2021/09/06 00:52:42;;;;;;;4.72;3.17;;;;;;;10.08;67.51;100795.48;1663140;85;21021;-72
2021/09/06 00:55:09;;;;;;;3.65;2.60;;;;;;;10.07;67.59;100790.34;1674855;85;20995;-73
2021/09/06 00:57:36;;;;;;;2.50;2.10;;;;;;;10.03;67.66;100792.63;1677478;85;21091;-73
2021/09/06 01:00:06;;;;;;;3.42;2.45;;;;;;;10.01;67.68;100792.56;1639356;86;21035;-74
2021/09/06 01:02:33;;;;;;;3.87;2.37;;;;;;;9.97;67.78;100792.19;1642980;87;21267;-74
2021/09/06 01:05:00;;;;;;;2.60;2.12;;;;;;;9.90;68.07;100794.60;1626021;86;20937;-74
2021/09/06 01:07:46;;;;;;;2.77;2.05;;;;;;;9.84;68.14;100792.78;1665438;84;21076;-74
2021/09/06 01:10:22;;;;;;;2.08;1.87;;;;;;;9.82;68.08;100786.81;1663544;84;20955;-73
2021/09/06 01:12:54;;;;;;;2.05;1.85;;;;;;;9.82;67.95;100788.98;1664183;86;21101;-74
2021/09/06 01:15:20;;;;;;;3.60;2.08;;;;;;;9.84;67.80;100785.55;1665466;86;21039;-75
2021/09/06 01:17:47;;;;;;;3.85;2.20;;;;;;;9.84;67.76;100789.58;1672140;84;21486;-74
2021/09/06 01:20:13;;;;;;;2.62;2.10;;;;;;;9.82;67.78;100786.30;1679983;84;21556;-75
2021/09/06 01:22:42;;;;;;;2.22;1.82;;;;;;;9.81;67.78;100792.70;1689897;84;20991;-74
2021/09/06 01:25:15;;;;;;;3.70;1.95;;;;;;;9.80;67.64;100794.26;1669203;84;21553;-73
2021/09/06 01:27:43;;;;;;;2.13;1.90;;;;;;;9.78;67.45;100793.16;1669645;84;21012;-73
2021/09/06 01:30:12;;;;;;;1.55;1.45;;;;;;;9.77;67.28;100795.53;1680821;84;20998;-74
2021/09/06 01:32:39;;;;;;;1.72;1.47;;;;;;;9.76;67.15;100799.77;1663508;86;21496;-72
2021/09/06 01:35:07;;;;;;;2.95;1.80;;;;;;;9.74;67.25;100799.15;1642094;86;21107;-73
2021/09/06 01:37:34;;;;;;;2.12;1.85;;;;;;;9.72;67.33;100803.94;1642341;86;21061;-72
2021/09/06 01:40:04;;;;;;;1.40;1.30;;;;;;;9.70;67.22;100801.45;1679349;84;20960;-75
2021/09/06 01:42:31;;;;;;;2.55;1.47;;;;;;;9.69;67.03;100805.72;1669297;84;21345;-73
2021/09/06 01:45:01;;;;;;;1.40;1.30;;;;;;;9.66;66.88;100801.59;1691154;84;20994;-73
2021/09/06 01:47:29;;;;;;;5.78;1.67;;;;;;;9.63;66.50;100806.89;1669319;84;21581;-73
2021/09/06 01:49:57;;;;;;;2.17;1.98;;;;;;;9.64;66.42;100805.83;1654594;86;21608;-74
2021/09/06 01:52:25;;;;;;;2.37;1.42;;;;;;;9.63;66.46;100803.37;1663369;86;21203;-71
2021/09/06 01:54:54;;;;;;;1.75;1.65;;;;;;;9.62;66.62;100809.78;1676973;84;20917;-73
2021/09/06 01:57:20;;;;;;;1.77;1.50;;;;;;;9.59;66.77;100811.57;1690916;84;21537;-72
2021/09/06 01:59:47;;;;;;;2.42;1.60;;;;;;;9.56;66.74;100810.63;1658791;86;21023;-73
2021/09/06 02:02:13;;;;;;;2.55;1.75;;;;;;;9.55;66.82;100811.67;1665304;84;21050;-72
2021/09/06 02:04:41;;;;;;;1.80;1.50;;;;;;;9.54;66.84;100811.39;1676499;84;21160;-75
2021/09/06 02:07:08;;;;;;;2.65;2.45;;;;;;;9.55;66.71;100808.47;1642071;86;21604;-74
2021/09/06 02:09:35;;;;;;;1.85;1.60;;;;;;;9.56;66.71;100802.58;1671376;84;20952;-75
2021/09/06 02:12:06;;;;;;;2.75;2.02;;;;;;;9.55;66.74;100800.41;1691472;84;21533;-73
2021/09/06 02:14:35;;;;;;;1.30;1.20;;;;;;;9.53;66.96;100811.91;1691385;84;21011;-74
2021/09/06 02:17:03;;;;;;;1.60;1.50;;;;;;;9.47;67.04;100814.62;1663830;84;21204;-72
2021/09/06 02:19:31;;;;;;;1.92;1.50;;;;;;;9.40;66.94;100814.64;1643521;84;20995;-72
2021/09/06 02:21:58;;;;;;;1.45;1.35;;;;;;;9.35;66.90;100814.45;1691184;84;21063;-72
2021/09/06 02:24:26;;;;;;;1.27;1.15;;;;;;;9.33;66.50;100815.72;1691385;84;21638;-72
2021/09/06 02:26:54;;;;;;;1.10;1.10;;;;;;;9.37;65.93;100815.08;1688323;84;21115;-73
2021/09/06 02:29:21;;;;;;;1.70;1.30;;;;;;;9.46;65.21;100820.50;1664713;86;22142;-72
2021/09/06 02:31:52;;;;;;;1.45;1.10;;;;;;;9.60;64.62;100818.56;1663050;86;21611;-72
2021/09/06 02:34:33;;;;;;;1.52;1.42;;;;;;;9.71;64.05;100814.38;1655619;84;21027;-73
2021/09/06 02:36:59;;;;;;;1.82;1.57;;;;;;;9.78;63.98;100821.88;1691221;84;20937;-74
2021/09/06 02:39:29;;;;;;;1.40;1.30;;;;;;;9.77;64.26;100821.05;1685220;84;20952;-73
2021/09/06 02:41:58;;;;;;;1.32;1.20;;;;;;;9.74;64.52;100818.78;1663452;86;21081;-72
2021/09/06 02:44:28;;;;;;;1.50;1.40;;;;;;;9.71;64.91;100822.43;1682131;83;20956;-73
2021/09/06 02:46:55;;;;;;;1.80;1.57;;;;;;;9.69;65.00;100821.30;1691628;84;21442;-80
2021/09/06 02:49:22;;;;;;;1.27;1.17;;;;;;;9.72;65.88;100823.56;1684620;84;21068;-72
2021/09/06 02:51:50;;;;;;;1.70;1.60;;;;;;;9.75;66.03;100816.92;1669342;84;21011;-72
2021/09/06 02:54:16;;;;;;;1.90;1.50;;;;;;;9.78;66.10;100823.23;1688963;84;22280;-72
2021/09/06 02:56:43;;;;;;;1.65;1.42;;;;;;;9.78;66.08;100825.40;1663298;86;21022;-72
2021/09/06 02:59:10;;;;;;;1.98;1.70;;;;;;;9.75;66.10;100827.67;1664190;84;21042;-72
2021/09/06 03:01:37;;;;;;;1.62;1.52;;;;;;;9.74;66.25;100830.05;1691279;84;21553;-71
2021/09/06 03:04:04;;;;;;;1.95;1.55;;;;;;;9.72;66.29;100830.28;1691190;84;21127;-71
2021/09/06 03:06:32;;;;;;;3.50;1.70;;;;;;;9.72;66.33;100836.17;1691443;84;21185;-71
2021/09/06 03:08:58;;;;;;;4.08;1.50;;;;;;;9.72;66.38;100834.83;1690945;84;21584;-71
2021/09/06 03:11:27;;;;;;;2.52;1.62;;;;;;;9.75;66.47;100832.52;1653741;84;21072;-76
2021/09/06 03:13:54;;;;;;;3.25;1.37;;;;;;;9.76;66.43;100832.84;1664727;84;21072;-74
2021/09/06 03:16:22;;;;;;;2.00;1.45;;;;;;;9.76;66.01;100843.58;1691170;84;21051;-72
2021/09/06 03:18:50;;;;;;;2.17;1.37;;;;;;;9.74;65.42;100845.65;1689180;84;21053;-77
2021/09/06 03:21:21;;;;;;;4.45;1.77;;;;;;;9.74;66.12;100844.82;1659540;86;21031;-73
2021/09/06 03:23:48;;;;;;;2.17;1.98;;;;;;;9.74;67.13;100854.22;1651451;86;21010;-75
2021/09/06 03:26:15;;;;;;;3.10;2.20;;;;;;;9.74;69.12;100851.54;1651624;86;20998;-73
2021/09/06 03:28:43;;;;;;;2.67;1.90;;;;;;;9.75;70.18;100853.19;1651390;86;21098;-73
2021/09/06 03:31:11;;;;;;;2.27;2.05;;;;;;;9.78;70.07;100850.09;1642251;86;21153;-75
2021/09/06 03:33:38;;;;;;;4.25;2.12;;;;;;;9.81;70.21;100851.82;1675289;84;21505;-74
2021/09/06 03:36:05;;;;;;;5.45;2.72;;;;;;;9.89;70.69;100846.17;1691285;84;21047;-73
2021/09/06 03:38:33;;;;;;;2.25;2.00;;;;;;;9.96;70.68;100846.97;1691229;84;21032;-73
2021/09/06 03:41:00;;;;;;;2.67;1.80;;;;;;;10.00;70.47;100853.55;1687325;84;24790;-73
2021/09/06 03:43:28;;;;;;;1.37;1.27;;;;;;;10.02;69.69;100856.03;1691501;84;21079;-71
2021/09/06 03:45:54;;;;;;;4.87;2.27;;;;;;;10.01;68.84;100857.89;1678132;84;21025;-72
2021/09/06 03:48:21;;;;;;;1.57;1.40;;;;;;;9.82;68.68;100858.02;1663615;84;21069;-73
2021/09/06 03:50:48;;;;;;;1.85;1.75;;;;;;;9.76;69.80;100857.53;1663941;84;21092;-72
2021/09/06 03:53:15;;;;;;;4.22;1.67;;;;;;;9.70;69.77;100864.59;1663298;86;21076;-74
2021/09/06 03:55:42;;;;;;;1.92;1.72;;;;;;;9.66;69.48;100860.69;1678958;84;21226;-74
2021/09/06 03:58:09;;;;;;;2.83;1.90;;;;;;;9.46;68.46;100860.78;1669262;84;20996;-75
2021/09/06 04:00:37;;;;;;;2.20;1.92;;;;;;;9.33;68.90;100865.39;1684108;84;21023;-74
2021/09/06 04:03:05;;;;;;;3.00;2.17;;;;;;;9.30;69.26;100867.17;1669319;84;21003;-74
2021/09/06 04:05:32;;;;;;;2.35;2.05;;;;;;;9.21;69.85;100866.56;1650112;86;21033;-75
2021/09/06 04:08:02;;;;;;;3.10;2.77;;;;;;;9.06;69.96;100872.21;1647622;86;21060;-74
2021/09/06 04:10:31;;;;;;;2.62;1.90;;;;;;;8.97;70.15;100873.99;1638143;86;20916;-75
2021/09/06 04:12:59;;;;;;;1.90;1.70;;;;;;;8.91;70.25;100881.02;1638167;86;21027;-74
2021/09/06 04:15:26;;;;;;;4.50;2.02;;;;;;;8.92;70.25;100877.27;1637867;87;21112;-73
2021/09/06 04:17:52;;;;;;;2.87;1.85;;;;;;;9.01;70.40;100877.90;1644172;86;21044;-74
2021/09/06 04:20:19;;;;;;;2.87;1.62;;;;;;;9.13;70.32;100881.05;1638181;86;21237;-74
2021/09/06 04:22:46;;;;;;;3.55;1.98;;;;;;;9.30;70.50;100881.94;1624811;88;21164;-73
2021/09/06 04:25:15;;;;;;;1.65;1.55;;;;;;;9.43;70.19;100885.91;1624637;87;21649;-74
2021/09/06 04:27:41;;;;;;;1.75;1.42;;;;;;;9.53;69.78;100888.97;1591167;88;21557;-73
2021/09/06 04:30:11;;;;;;;7.97;1.60;;;;;;;9.61;69.04;100892.22;1633590;87;20996;-80
2021/09/06 04:32:38;;;;;;;1.75;1.40;;;;;;;9.68;68.35;100883.31;1689596;85;21118;-74
2021/09/06 04:35:05;;;;;;;1.80;1.70;;;;;;;9.72;67.78;100890.73;1669249;85;20988;-73
2021/09/06 04:37:32;;;;;;;1.60;1.50;;;;;;;9.75;67.57;100893.49;1669596;85;20956;-74
2021/09/06 04:40:03;;;;;;;3.10;1.80;;;;;;;9.77;68.78;100893.59;1659315;85;21608;-73
2021/09/06 04:42:32;;;;;;;2.00;1.72;;;;;;;9.77;69.82;100891.43;1662892;84;21103;-73
2021/09/06 04:44:59;;;;;;;2.05;1.77;;;;;;;9.78;70.30;100891.73;1612099;88;21165;-75
2021/09/06 04:47:26;;;;;;;6.33;1.82;;;;;;;9.78;70.87;100891.73;1625650;86;21054;-77
2021/09/06 04:49:53;;;;;;;5.30;3.90;;;;;;;9.79;71.94;100883.95;1612037;87;21110;-76
2021/09/06 04:52:21;;;;;;;5.12;3.05;;;;;;;9.81;72.53;100885.92;1661419;86;21020;-72
2021/09/06 04:54:48;;;;;;;3.37;2.90;;;;;;;9.85;73.27;100891.99;1664749;86;20961;-73
2021/09/06 04:57:14;;;;;;;4.17;2.80;;;;;;;9.91;73.91;100887.63;1687000;85;21747;-74
2021/09/06 04:59:44;;;;;;;4.72;2.60;;;;;;;9.98;74.40;100887.87;1666229;84;21535;-74
2021/09/06 05:02:11;;;;;;;6.25;3.00;;;;;;;10.05;74.72;100887.84;1642180;86;21010;-72
2021/09/06 05:04:38;;;;;;;4.65;2.75;;;;;;;10.13;75.06;100882.70;1661719;86;21061;-74
2021/09/06 05:07:05;;;;;;;7.65;3.55;;;;;;;10.20;75.32;100879.50;1663889;86;21504;-73
2021/09/06 05:09:31;;;;;;;5.53;3.35;;;;;;;10.28;75.25;100884.08;1664519;84;21145;-74
2021/09/06 05:11:58;;;;;;;10.88;3.42;;;;;;;10.33;75.07;100884.25;1678157;84;21027;-75
2021/09/06 05:14:26;;;;;;;13.65;3.85;;;;;;;10.37;74.89;100884.11;1650967;87;21019;-76
2021/09/06 05:16:54;;;;;;;9.85;3.98;;;;;;;10.42;74.70;100882.11;1691598;84;21080;-75
2021/09/06 05:19:21;;;;;;;6.62;3.75;;;;;;;10.43;74.60;100888.63;1691564;84;21087;-76
2021/09/06 05:21:47;;;;;;;9.58;4.78;;;;;;;10.44;74.61;100886.77;1650370;87;21049;-75
2021/09/06 05:24:15;;;;;;;10.63;3.70;;;;;;;10.46;74.61;100890.03;1685232;84;21495;-75
2021/09/06 05:26:42;;;;;;;8.08;3.20;;;;;;;10.50;74.74;100891.27;1663540;86;21066;-77
2021/09/06 05:29:09;;;;;;;7.70;2.95;;;;;;;10.55;74.90;100888.71;1679201;84;21549;-75
2021/09/06 05:31:36;;;;;;;6.92;3.58;;;;;;;10.62;74.68;100881.42;1646745;86;21081;-75
2021/09/06 05:34:03;;;;;;;6.95;2.72;;;;;;;10.69;74.23;100886.23;1642346;86;21028;-75
2021/09/06 05:36:30;;;;;;;12.88;3.17;;;;;;;10.77;74.02;100882.42;1663187;86;21052;-75
2021/09/06 05:38:59;;;;;;;10.00;3.15;;;;;;;10.88;73.85;100882.53;1664260;84;21621;-79
2021/09/06 05:41:36;;;;;;;5.42;2.60;;;;;;;10.96;73.44;100885.44;1641855;86;21058;-75
2021/09/06 05:44:05;;;;;;;12.33;3.20;;;;;;;10.98;73.35;100882.02;1663643;86;21030;-75
2021/09/06 05:46:32;;;;;;;3.85;2.85;;;;;;;10.98;73.17;100881.19;1651153;84;21064;-76
2021/09/06 05:48:59;;;;;;;4.67;2.90;;;;;;;11.02;73.22;100889.94;1679922;84;21497;-76
2021/09/06 05:51:27;;;;;;;4.15;3.47;;;;;;;11.03;73.35;100884.83;1669527;84;20944;-73
2021/09/06 05:53:58;;;;;;;4.95;2.98;;;;;;;11.07;73.49;100882.53;1658382;84;21043;-75
2021/09/06 05:56:26;;;;;;;7.50;3.08;;;;;;;11.14;73.68;100890.00;1691197;84;21500;-74
2021/09/06 05:58:54;;;;;;;7.20;3.65;;;;;;;11.20;73.83;100891.29;1691195;84;21868;-75
2021/09/06 06:01:20;;;;;;;11.33;4.22;;;;;;;11.31;73.98;100892.41;1687277;84;21120;-75
2021/09/06 06:03:47;;;;;;;7.12;3.47;;;;;;;11.42;73.78;100890.30;1646350;85;21026;-78
2021/09/06 06:06:17;;;;;;;7.50;3.15;;;;;;;11.50;73.75;100894.05;1664484;85;21161;-76
2021/09/06 06:08:45;;;;;;;8.63;3.50;;;;;;;11.62;73.63;100886.83;1624740;88;21589;-75
2021/09/06 06:11:13;;;;;;;7.92;3.77;;;;;;;11.69;73.35;100891.63;1662133;85;21019;-74
2021/09/06 06:13:41;;;;;;;7.20;2.42;;;;;;;11.73;73.13;100900.09;1661797;86;20991;-75
2021/09/06 06:16:09;;;;;;;3.45;2.70;;;;;;;11.77;72.81;100900.77;1662072;85;20928;-76
2021/09/06 06:18:37;;;;;;;8.05;3.20;;;;;;;11.81;72.36;100898.42;1661702;86;21122;-74
2021/09/06 06:21:07;;;;;;;7.45;3.62;;;;;;;11.87;72.20;100904.78;1661992;85;21080;-74
2021/09/06 06:23:42;;;;;;;5.17;2.90;;;;;;;11.86;72.29;100909.34;1602598;87;21103;-73
2021/09/06 06:26:13;;;;;;;7.12;3.05;;;;;;;11.92;72.22;100910.31;1583291;89;21556;-77
2021/09/06 06:28:41;;;;;;;4.87;2.52;;;;;;;11.99;71.82;100910.50;1605420;88;21004;-77
2021/09/06 06:31:10;;;;;;;2.52;2.25;;;;;;;12.11;71.39;100918.64;1637870;86;21056;-74
2021/09/06 06:33:36;;;;;;;9.15;3.62;;;;;;;12.22;71.38;100918.69;1611977;88;21115;-77
2021/09/06 06:36:04;;;;;;;4.20;2.80;;;;;;;12.31;70.97;100920.52;1597772;88;21104;-76
2021/09/06 06:38:33;;;;;;;5.00;3.20;;;;;;;12.43;69.78;100919.19;1661816;86;21038;-76
2021/09/06 06:41:01;;;;;;;5.58;2.65;;;;;;;12.52;68.81;100926.70;1663511;85;20939;-77
2021/09/06 06:43:30;;;;;;;8.00;2.62;;;;;;;12.57;66.21;100928.19;1624071;87;21092;-76
2021/09/06 06:45:56;;;;;;;3.60;2.65;;;;;;;12.62;65.85;100926.96;1633545;86;21047;-76
2021/09/06 06:48:25;;;;;;;3.75;2.85;;;;;;;12.65;65.31;100926.52;1625310;86;21185;-75
2021/09/06 06:50:54;;;;;;;7.50;2.98;;;;;;;12.71;64.95;100925.30;1637813;85;21526;-77
2021/09/06 06:53:21;;;;;;;3.20;2.45;;;;;;;12.74;64.72;100932.39;1647180;86;20952;-76
2021/09/06 06:55:49;;;;;;;6.37;2.70;;;;;;;12.77;63.83;100933.26;1651402;86;21102;-75
2021/09/06 06:58:17;;;;;;;4.60;2.85;;;;;;;12.81;63.38;100934.95;1638060;86;21047;-75
2021/09/06 07:00:44;;;;;;;6.42;3.12;;;;;;;12.82;62.95;100936.61;1630501;87;22335;-75
2021/09/06 07:03:10;;;;;;;5.15;3.60;;;;;;;12.84;62.46;100934.50;1642615;86;20997;-75
2021/09/06 07:05:37;;;;;;;10.35;3.30;;;;;;;12.88;62.44;100937.85;1611770;87;21751;-75
2021/09/06 07:08:05;;;;;;;6.87;2.95;;;;;;;12.89;61.49;100945.43;1631172;86;21042;-76
2021/09/06 07:10:33;;;;;;;6.65;2.92;;;;;;;12.81;61.35;100949.80;1685656;85;20913;-75
2021/09/06 07:13:00;;;;;;;6.35;4.35;;;;;;;12.76;62.00;100950.50;1649937;84;21516;-75
2021/09/06 07:15:32;;;;;;;7.15;3.47;;;;;;;12.83;62.24;100950.41;1668935;85;21512;-77
2021/09/06 07:17:57;;;;;;;6.60;2.83;;;;;;;12.89;61.65;100956.23;1662235;85;20964;-77
2021/09/06 07:20:24;;;;;;;5.25;2.45;;;;;;;12.92;60.73;100954.40;1673923;84;20916;-76
2021/09/06 07:22:50;;;;;;;3.67;2.30;;;;;;;12.98;60.75;100952.95;1671993;84;21493;-77
2021/09/06 07:25:17;;;;;;;4.20;2.67;;;;;;;13.07;60.73;100962.34;1618544;86;21912;-77
2021/09/06 07:27:44;;;;;;;4.42;2.50;;;;;;;13.16;60.19;100953.38;1636849;86;21501;-76
2021/09/06 07:30:12;;;;;;;6.12;3.15;;;;;;;13.24;60.56;100954.36;1635885;86;21588;-78
2021/09/06 07:32:39;;;;;;;8.80;3.17;;;;;;;13.31;60.29;100959.13;1651247;86;21588;-75
2021/09/06 07:35:08;;;;;;;4.12;2.60;;;;;;;13.37;59.82;100953.31;1668804;85;21099;-77
2021/09/06 07:37:35;;;;;;;3.83;2.35;;;;;;;13.40;59.27;100952.83;1681409;85;21843;-75
2021/09/06 07:40:03;;;;;;;6.35;2.60;;;;;;;13.37;58.89;100961.41;1619034;88;21645;-76
2021/09/06 07:42:30;;;;;;;4.70;2.87;;;;;;;13.36;57.95;100964.64;1622412;86;21152;-75
2021/09/06 07:44:57;;;;;;;4.72;2.47;;;;;;;13.36;57.95;100959.23;1682127;85;20920;-74
2021/09/06 07:47:24;;;;;;;3.55;2.47;;;;;;;13.33;58.22;100963.74;1662613;86;21606;-76
2021/09/06 07:49:51;;;;;;;4.35;2.70;;;;;;;13.34;58.60;100961.88;1672695;85;22148;-74
2021/09/06 07:52:18;;;;;;;7.15;2.85;;;;;;;13.41;58.89;100966.11;1664195;86;21588;-73
2021/09/06 07:54:45;;;;;;;6.22;3.08;;;;;;;13.47;59.02;100963.81;1663328;85;21039;-75
2021/09/06 07:57:12;;;;;;;6.45;4.17;;;;;;;13.54;59.11;100964.48;1684020;84;21021;-75
2021/09/06 07:59:39;;;;;;;7.22;4.08;;;;;;;13.60;59.49;100970.83;1623784;88;21149;-75
2021/09/06 08:02:06;;;;;;;6.15;4.03;;;;;;;13.64;59.57;100959.83;1678083;85;21160;-75
2021/09/06 08:04:34;;;;;;;8.73;3.50;;;;;;;13.69;59.56;100965.87;1674656;85;21077;-77
2021/09/06 08:07:08;;;;;;;10.23;4.37;;;;;;;13.76;59.38;100963.86;1600831;88;21119;-74
2021/09/06 08:09:37;;;;;;;8.65;3.98;;;;;;;13.82;59.53;100956.95;1617105;88;21066;-75
2021/09/06 08:12:06;;;;;;;5.90;3.60;;;;;;;13.76;58.73;100962.52;1636907;87;21076;-76
2021/09/06 08:14:32;;;;;;;4.92;2.92;;;;;;;13.79;58.36;100964.73;1612670;87;21156;-77
2021/09/06 08:17:01;;;;;;;5.08;2.70;;;;;;;13.82;58.24;100966.41;1638117;87;22379;-76
2021/09/06 08:19:29;;;;;;;3.30;2.00;;;;;;;13.88;57.11;100968.70;1648656;86;20968;-76
2021/09/06 08:21:56;;;;;;;4.08;2.72;;;;;;;13.92;56.01;100965.80;1613656;87;21890;-78
2021/09/06 08:24:25;;;;;;;3.25;2.25;;;;;;;13.93;55.72;100966.92;1631836;87;21063;-77
2021/09/06 08:26:51;;;;;;;3.58;1.95;;;;;;;13.94;55.54;100969.09;1593376;88;21774;-77
2021/09/06 08:29:19;;;;;;;4.03;2.47;;;;;;;13.94;55.42;100969.92;1631327;87;20955;-75
2021/09/06 08:31:46;;;;;;;2.90;2.40;;;;;;;13.97;55.76;100967.25;1620914;88;21042;-77
2021/09/06 08:34:13;;;;;;;3.17;2.25;;;;;;;14.00;55.66;100961.38;1611279;88;21122;-75
2021/09/06 08:36:43;;;;;;;3.45;2.08;;;;;;;14.04;55.48;100966.59;1636310;87;21011;-75
2021/09/06 08:39:10;;;;;;;3.90;2.58;;;;;;;14.08;55.09;100958.80;1643777;87;21922;-76
2021/09/06 08:41:37;;;;;;;10.50;2.27;;;;;;;14.14;55.44;100957.84;1643669;87;21115;-76
2021/09/06 08:44:04;;;;;;;2.33;1.85;;;;;;;14.22;55.52;100954.21;1632432;87;21512;-76
2021/09/06 08:46:31;;;;;;;4.33;2.50;;;;;;;14.33;54.97;100955.22;1629568;86;21003;-76
2021/09/06 08:48:58;;;;;;;2.62;2.10;;;;;;;14.42;54.21;100954.31;1646916;87;21268;-76
2021/09/06 08:51:25;;;;;;;2.27;1.95;;;;;;;14.50;52.72;100962.03;1623811;87;21957;-75
2021/09/06 08:53:52;;;;;;;2.60;2.15;;;;;;;14.54;51.09;100963.17;1585310;88;21043;-74
2021/09/06 08:56:21;;;;;;;4.10;2.08;;;;;;;14.59;51.53;100953.78;1635780;87;21091;-75
2021/09/06 08:58:48;;;;;;;2.22;1.60;;;;;;;14.61;52.32;100955.20;1602940;88;21041;-77
2021/09/06 09:01:15;;;;;;;5.10;2.08;;;;;;;14.64;51.95;100955.23;1629836;87;21125;-76
2021/09/06 09:03:52;;;;;;;2.27;1.85;;;;;;;14.69;51.50;100960.73;1595962;88;21095;-77
2021/09/06 09:06:39;;;;;;;6.10;2.10;;;;;;;14.73;50.16;100959.99;1610407;87;21014;-74
2021/09/06 09:09:10;;;;;;;3.05;2.00;;;;;;;14.76;43.22;100950.57;1595563;87;21527;-75
2021/09/06 09:11:44;;;;;;;2.10;1.82;;;;;;;14.83;41.72;100955.27;1616170;87;21489;-77
2021/09/06 09:14:16;;;;;;;4.92;2.08;;;;;;;14.89;42.88;100948.05;1666232;84;21104;-75
2021/09/06 09:16:57;;;;;;;2.40;1.72;;;;;;;14.97;43.89;100953.87;1683838;84;21960;-74
2021/09/06 09:19:29;;;;;;;2.72;1.45;;;;;;;14.96;43.22;100950.89;1666288;84;21568;-75
2021/09/06 09:22:20;;;;;;;2.05;1.45;;;;;;;14.98;44.55;100950.62;1638895;86;21011;-75
2021/09/06 09:25:09;;;;;;;11.45;3.92;;;;;;;15.00;44.36;100941.73;1635770;86;21058;-75
2021/09/06 09:27:44;;;;;;;4.35;2.95;;;;;;;15.02;47.48;100944.98;1667682;84;21072;-77
2021/09/06 09:30:23;;;;;;;2.92;2.33;;;;;;;15.00;48.02;100949.33;1656315;84;21527;-81
2021/09/06 09:33:14;;;;;;;2.25;1.75;;;;;;;14.94;48.49;100946.24;1649389;85;21002;-76
2021/09/06 09:35:51;;;;;;;3.35;1.90;;;;;;;14.77;49.25;100950.86;1638317;84;21000;-74
2021/09/06 09:38:18;;;;;;;10.08;2.08;;;;;;;14.72;48.01;100948.86;1679978;84;21079;-73
2021/09/06 09:40:46;;;;;;;2.85;1.80;;;;;;;14.77;47.05;100946.23;1679329;84;21000;-71
2021/09/06 09:43:14;;;;;;;2.15;1.70;;;;;;;14.81;47.09;100950.13;1650875;86;21585;-70
2021/09/06 09:45:40;;;;;;;2.47;2.22;;;;;;;14.86;43.49;100952.09;1681037;84;21059;-77
2021/09/06 09:48:17;;;;;;;1.75;1.45;;;;;;;14.91;43.94;100954.05;1655783;84;21027;-69
2021/09/06 09:50:46;;;;;;;2.98;1.57;;;;;;;14.99;44.51;100953.62;1613157;84;20991;-71
2021/09/06 09:53:14;;;;;;;3.30;1.90;;;;;;;15.02;45.36;100956.66;1632261;87;21008;-80
2021/09/06 09:55:41;;;;;;;2.52;1.72;;;;;;;15.03;44.56;100958.83;1631852;86;21283;-83
2021/09/06 09:58:08;;;;;;;7.05;4.28;;;;;;;15.01;43.96;100955.00;1672420;85;21050;-77
2021/09/06 10:00:37;;;;;;;3.02;2.17;;;;;;;14.98;43.94;100962.29;1642151;86;21007;-80
2021/09/06 10:03:04;;;;;;;3.85;2.40;;;;;;;14.97;45.21;100956.58;1672398;84;21612;-71
2021/09/06 10:05:34;;;;;;;3.83;2.77;;;;;;;14.95;46.21;100964.15;1628919;87;21520;-72
2021/09/06 10:08:09;;;;;;;4.28;3.15;;;;;;;14.84;46.88;100956.39;1643701;87;21056;-72
2021/09/06 10:10:40;;;;;;;3.70;1.57;;;;;;;14.82;47.36;100957.69;1672578;84;20936;-81
2021/09/06 10:13:17;;;;;;;2.62;2.20;;;;;;;14.86;47.16;100960.75;1685052;84;20992;-74
2021/09/06 10:15:56;;;;;;;3.27;1.98;;;;;;;14.89;47.21;100954.83;1605399;88;21039;-74
2021/09/06 10:18:25;;;;;;;3.17;1.92;;;;;;;14.99;47.34;100953.62;1671947;84;21353;-76
2021/09/06 10:20:55;;;;;;;2.35;2.12;;;;;;;15.09;47.06;100954.61;1661296;85;22503;-76
2021/09/06 10:23:22;;;;;;;7.60;2.67;;;;;;;15.13;47.02;100952.21;1656419;84;21513;-71
2021/09/06 10:25:51;;;;;;;2.22;1.70;;;;;;;15.18;46.54;100944.16;1671398;84;20968;-73
2021/09/06 10:28:18;;;;;;;4.03;1.57;;;;;;;15.24;42.12;100941.81;1641760;87;20963;-75
2021/09/06 10:30:48;;;;;;;1.60;1.47;;;;;;;15.35;40.66;100934.64;1623599;87;21057;-79
2021/09/06 10:33:34;;;;;;;1.90;1.55;;;;;;;15.47;39.86;100937.52;1663480;86;21116;-82
2021/09/06 10:36:12;;;;;;;2.67;1.42;;;;;;;15.58;40.47;100939.86;1644422;87;20984;-79
2021/09/06 10:38:51;;;;;;;2.87;1.57;;;;;;;15.65;40.62;100941.83;1680612;84;21016;-78
2021/09/06 10:41:21;;;;;;;1.37;1.27;;;;;;;15.78;40.24;100946.86;1687527;84;20995;-69
2021/09/06 10:43:59;;;;;;;3.42;1.42;;;;;;;15.82;38.06;100948.02;1665902;84;21075;-71
2021/09/06 10:46:28;;;;;;;2.87;1.50;;;;;;;15.81;36.09;100955.05;1679214;84;21207;-71
2021/09/06 10:49:03;;;;;;;1.35;1.25;;;;;;;15.78;37.02;100957.72;1686154;84;21513;-70
2021/09/06 10:51:34;;;;;;;2.60;1.37;;;;;;;15.77;36.50;100951.20;1691363;84;21076;-70
2021/09/06 10:54:06;;;;;;;1.50;1.23;;;;;;;15.80;36.72;100957.47;1690128;84;20957;-71
2021/09/06 10:56:34;;;;;;;0.93;0.88;;;;;;;15.86;36.92;100947.80;1622766;87;21067;-69
2021/09/06 10:59:02;;;;;;;2.45;1.20;;;;;;;15.93;37.09;100948.39;1661163;84;21103;-70
2021/09/06 11:01:31;;;;;;;1.47;0.93;;;;;;;16.04;36.10;100946.09;1667343;84;20955;-70
2021/09/06 11:03:57;;;;;;;2.47;1.62;;;;;;;16.17;35.72;100946.21;1683530;84;21012;-71
2021/09/06 11:06:27;;;;;;;2.77;1.32;;;;;;;16.32;35.32;100935.50;1683036;84;21071;-73
2021/09/06 11:08:56;;;;;;;0.90;0.90;;;;;;;16.47;35.46;100942.44;1610406;87;21039;-72
2021/09/06 11:11:31;;;;;;;2.25;1.50;;;;;;;16.58;35.03;100935.23;1644003;84;21084;-71
2021/09/06 11:14:01;;;;;;;1.20;1.10;;;;;;;16.63;34.31;100933.10;1639699;87;21381;-70
2021/09/06 11:16:38;;;;;;;4.20;1.60;;;;;;;16.52;34.42;100932.98;1683578;84;21043;-71
2021/09/06 11:19:15;;;;;;;1.27;1.17;;;;;;;16.50;34.59;100928.87;1664515;84;21039;-69
2021/09/06 11:21:42;;;;;;;1.20;0.90;;;;;;;16.55;33.57;100927.02;1673832;84;21016;-75
2021/09/06 11:24:10;;;;;;;1.22;1.12;;;;;;;16.66;32.86;100939.36;1686576;84;21142;-75
2021/09/06 11:26:37;;;;;;;1.55;1.30;;;;;;;16.72;32.71;100924.21;1656152;84;21591;-71
2021/09/06 11:29:05;;;;;;;2.08;1.70;;;;;;;16.80;32.59;100928.33;1669612;84;21501;-76
2021/09/06 11:31:34;;;;;;;1.10;1.00;;;;;;;16.90;32.16;100922.44;1690658;84;21072;-74
2021/09/06 11:34:04;;;;;;;1.12;0.85;;;;;;;16.94;32.21;100928.16;1690505;84;21004;-72
2021/09/06 11:36:31;;;;;;;1.15;1.02;;;;;;;16.96;32.06;100918.67;1691104;84;21500;-75